createdAt,value
2016-08-11T00:00:08.101Z,1013.06
2016-08-11T00:01:08.077Z,1013.06
2016-08-11T00:02:08.050Z,1013.04
2016-08-11T00:03:08.026Z,1013.06
2016-08-11T00:04:07.999Z,1013.1
2016-08-11T00:05:07.974Z,1013.05
2016-08-11T00:06:07.949Z,1013.05
2016-08-11T00:07:07.924Z,1013.03
2016-08-11T00:08:07.898Z,1013.03
2016-08-11T00:09:07.873Z,1013.02
2016-08-11T00:10:07.848Z,1012.98
2016-08-11T00:11:07.822Z,1012.99
2016-08-11T00:12:07.796Z,1013
2016-08-11T00:13:07.772Z,1012.96
2016-08-11T00:14:07.746Z,1012.94
2016-08-11T00:15:07.720Z,1012.96
2016-08-11T00:16:07.696Z,1012.93
2016-08-11T00:17:07.671Z,1012.99
2016-08-11T00:18:07.648Z,1012.94
2016-08-11T00:19:07.620Z,1012.97
2016-08-11T00:20:07.596Z,1012.95
2016-08-11T00:21:07.571Z,1012.96
2016-08-11T00:22:07.545Z,1012.97
2016-08-11T00:23:07.519Z,1012.94
2016-08-11T00:24:07.494Z,1012.92
2016-08-11T00:25:07.469Z,1012.92
2016-08-11T00:26:07.443Z,1012.93
2016-08-11T00:27:07.418Z,1012.89
2016-08-11T00:28:07.393Z,1012.93
2016-08-11T00:29:07.367Z,1012.89
2016-08-11T00:30:07.341Z,1012.88
2016-08-11T00:31:07.316Z,1012.92
2016-08-11T00:32:07.291Z,1012.88
2016-08-11T00:33:07.265Z,1012.89
2016-08-11T00:34:07.240Z,1012.87
2016-08-11T00:35:07.214Z,1012.84
2016-08-11T00:36:07.188Z,1012.82
2016-08-11T00:37:07.163Z,1012.83
2016-08-11T00:38:07.138Z,1012.82
2016-08-11T00:39:07.113Z,1012.79
2016-08-11T00:40:07.086Z,1012.74
2016-08-11T00:41:07.061Z,1012.78
2016-08-11T00:42:07.035Z,1012.79
2016-08-11T00:43:07.011Z,1012.76
2016-08-11T00:44:06.984Z,1012.77
2016-08-11T00:45:06.959Z,1012.75
2016-08-11T00:46:06.933Z,1012.76
2016-08-11T00:47:06.911Z,1012.75
2016-08-11T00:48:06.882Z,1012.75
2016-08-11T00:49:06.864Z,1012.79
2016-08-11T00:50:06.831Z,1012.77
2016-08-11T00:51:06.806Z,1012.76
2016-08-11T00:52:06.780Z,1012.78
2016-08-11T00:53:06.759Z,1012.77
2016-08-11T00:54:06.729Z,1012.76
2016-08-11T00:55:06.703Z,1012.76
2016-08-11T00:56:06.677Z,1012.78
2016-08-11T00:57:06.653Z,1012.77
2016-08-11T00:58:06.627Z,1012.79
2016-08-11T00:59:06.601Z,1012.8
2016-08-11T01:00:06.576Z,1012.75
2016-08-11T01:01:06.550Z,1012.78
2016-08-11T01:02:06.523Z,1012.75
2016-08-11T01:03:06.498Z,1012.81
2016-08-11T01:04:06.472Z,1012.74
2016-08-11T01:05:06.447Z,1012.75
2016-08-11T01:06:06.421Z,1012.76
2016-08-11T01:07:06.396Z,1012.76
2016-08-11T01:08:06.370Z,1012.81
2016-08-11T01:09:06.344Z,1012.75
2016-08-11T01:10:06.319Z,1012.78
2016-08-11T01:11:06.294Z,1012.75
2016-08-11T01:12:06.318Z,1012.75
2016-08-11T01:13:06.242Z,1012.75
2016-08-11T01:14:06.216Z,1012.76
2016-08-11T01:15:06.191Z,1012.75
2016-08-11T01:16:06.171Z,1012.79
2016-08-11T01:17:06.138Z,1012.74
2016-08-11T01:18:06.114Z,1012.78
2016-08-11T01:19:06.087Z,1012.81
2016-08-11T01:20:06.062Z,1012.78
2016-08-11T01:21:06.035Z,1012.81
2016-08-11T01:22:06.011Z,1012.81
2016-08-11T01:23:05.984Z,1012.82
2016-08-11T01:24:05.959Z,1012.81
2016-08-11T01:25:05.933Z,1012.78
2016-08-11T01:26:05.907Z,1012.81
2016-08-11T01:27:05.883Z,1012.79
2016-08-11T01:28:05.856Z,1012.8
2016-08-11T01:29:05.831Z,1012.81
2016-08-11T01:30:05.805Z,1012.83
2016-08-11T01:31:05.779Z,1012.76
2016-08-11T01:32:05.754Z,1012.76
2016-08-11T01:33:05.728Z,1012.77
2016-08-11T01:34:05.701Z,1012.83
2016-08-11T01:35:05.677Z,1012.78
2016-08-11T01:36:05.649Z,1012.78
2016-08-11T01:37:05.625Z,1012.81
2016-08-11T01:38:05.598Z,1012.8
2016-08-11T01:39:05.572Z,1012.82
2016-08-11T01:40:05.547Z,1012.85
2016-08-11T01:41:05.529Z,1012.81
2016-08-11T01:42:05.495Z,1012.82
2016-08-11T01:43:05.469Z,1012.87
2016-08-11T01:44:05.443Z,1012.87
2016-08-11T01:45:05.419Z,1012.83
2016-08-11T01:46:05.392Z,1012.87
2016-08-11T01:47:05.366Z,1012.85
2016-08-11T01:48:05.340Z,1012.88
2016-08-11T01:49:05.315Z,1012.92
2016-08-11T01:50:05.288Z,1012.88
2016-08-11T01:51:05.265Z,1012.85
2016-08-11T01:52:05.237Z,1012.84
2016-08-11T01:53:05.212Z,1012.85
2016-08-11T01:54:05.186Z,1012.88
2016-08-11T01:55:05.161Z,1012.9
2016-08-11T01:56:05.135Z,1012.88
2016-08-11T01:57:05.108Z,1012.88
2016-08-11T01:58:05.083Z,1012.89
2016-08-11T01:59:05.057Z,1012.91
2016-08-11T02:00:05.033Z,1012.92
2016-08-11T02:01:05.007Z,1012.95
2016-08-11T02:02:04.979Z,1012.94
2016-08-11T02:03:04.957Z,1012.91
2016-08-11T02:04:04.929Z,1012.91
2016-08-11T02:05:04.907Z,1012.89
2016-08-11T02:06:04.876Z,1012.88
2016-08-11T02:07:04.852Z,1012.86
2016-08-11T02:08:04.826Z,1012.86
2016-08-11T02:09:04.801Z,1012.87
2016-08-11T02:10:04.775Z,1012.91
2016-08-11T02:11:04.749Z,1012.88
2016-08-11T02:12:04.722Z,1012.9
2016-08-11T02:13:04.696Z,1012.9
2016-08-11T02:14:04.672Z,1012.89
2016-08-11T02:15:04.645Z,1012.89
2016-08-11T02:16:04.619Z,1012.88
2016-08-11T02:17:04.594Z,1012.89
2016-08-11T02:18:04.571Z,1012.86
2016-08-11T02:19:04.542Z,1012.86
2016-08-11T02:20:04.517Z,1012.86
2016-08-11T02:21:04.491Z,1012.84
2016-08-11T02:22:04.465Z,1012.83
2016-08-11T02:23:04.452Z,1012.87
2016-08-11T02:24:04.412Z,1012.86
2016-08-11T02:25:04.387Z,1012.88
2016-08-11T02:26:04.360Z,1012.86
2016-08-11T02:27:04.334Z,1012.83
2016-08-11T02:28:04.309Z,1012.85
2016-08-11T02:29:04.283Z,1012.81
2016-08-11T02:30:04.257Z,1012.81
2016-08-11T02:31:04.231Z,1012.8
2016-08-11T02:32:04.206Z,1012.79
2016-08-11T02:33:04.181Z,1012.76
2016-08-11T02:34:04.154Z,1012.76
2016-08-11T02:35:04.130Z,1012.75
2016-08-11T02:36:04.104Z,1012.76
2016-08-11T02:37:04.076Z,1012.78
2016-08-11T02:38:04.050Z,1012.74
2016-08-11T02:39:04.025Z,1012.74
2016-08-11T02:40:03.999Z,1012.74
2016-08-11T02:41:03.972Z,1012.74
2016-08-11T02:42:03.946Z,1012.7
2016-08-11T02:43:03.922Z,1012.7
2016-08-11T02:44:03.896Z,1012.7
2016-08-11T02:45:03.869Z,1012.7
2016-08-11T02:46:03.844Z,1012.68
2016-08-11T02:47:03.817Z,1012.73
2016-08-11T02:48:03.791Z,1012.68
2016-08-11T02:49:03.765Z,1012.7
2016-08-11T02:50:03.739Z,1012.74
2016-08-11T02:51:03.713Z,1012.75
2016-08-11T02:52:03.687Z,1012.74
2016-08-11T02:53:03.661Z,1012.74
2016-08-11T02:54:03.637Z,1012.74
2016-08-11T02:55:03.610Z,1012.76
2016-08-11T02:56:03.583Z,1012.74
2016-08-11T02:57:03.557Z,1012.7
2016-08-11T02:58:03.533Z,1012.75
2016-08-11T02:59:03.505Z,1012.76
2016-08-11T03:00:03.480Z,1012.75
2016-08-11T03:01:03.453Z,1012.77
2016-08-11T03:02:03.428Z,1012.78
2016-08-11T03:03:03.401Z,1012.76
2016-08-11T03:04:03.374Z,1012.78
2016-08-11T03:05:03.350Z,1012.77
2016-08-11T03:06:03.337Z,1012.76
2016-08-11T03:07:03.297Z,1012.77
2016-08-11T03:08:03.270Z,1012.79
2016-08-11T03:09:03.245Z,1012.74
2016-08-11T03:10:03.218Z,1012.75
2016-08-11T03:11:03.192Z,1012.75
2016-08-11T03:12:03.166Z,1012.76
2016-08-11T03:13:03.140Z,1012.77
2016-08-11T03:14:03.113Z,1012.72
2016-08-11T03:15:03.088Z,1012.76
2016-08-11T03:16:03.062Z,1012.77
2016-08-11T03:17:03.036Z,1012.79
2016-08-11T03:18:03.009Z,1012.75
2016-08-11T03:19:02.982Z,1012.72
2016-08-11T03:20:02.957Z,1012.68
2016-08-11T03:21:02.929Z,1012.7
2016-08-11T03:22:02.905Z,1012.7
2016-08-11T03:23:02.877Z,1012.69
2016-08-11T03:24:02.852Z,1012.66
2016-08-11T03:25:02.825Z,1012.7
2016-08-11T03:26:02.801Z,1012.7
2016-08-11T03:27:02.772Z,1012.71
2016-08-11T03:28:02.748Z,1012.75
2016-08-11T03:29:02.722Z,1012.73
2016-08-11T03:30:02.697Z,1012.69
2016-08-11T03:31:02.669Z,1012.7
2016-08-11T03:32:02.642Z,1012.7
2016-08-11T03:33:02.617Z,1012.74
2016-08-11T03:34:02.590Z,1012.77
2016-08-11T03:35:02.565Z,1012.75
2016-08-11T03:36:02.538Z,1012.79
2016-08-11T03:37:02.511Z,1012.79
2016-08-11T03:38:02.485Z,1012.77
2016-08-11T03:39:02.459Z,1012.81
2016-08-11T03:40:02.433Z,1012.8
2016-08-11T03:41:02.407Z,1012.77
2016-08-11T03:42:02.381Z,1012.79
2016-08-11T03:43:02.354Z,1012.78
2016-08-11T03:44:02.328Z,1012.76
2016-08-11T03:45:02.303Z,1012.76
2016-08-11T03:46:02.277Z,1012.74
2016-08-11T03:47:02.250Z,1012.76
2016-08-11T03:48:02.222Z,1012.76
2016-08-11T03:49:02.197Z,1012.74
2016-08-11T03:50:02.183Z,1012.75
2016-08-11T03:51:02.143Z,1012.73
2016-08-11T03:52:02.123Z,1012.72
2016-08-11T03:53:02.093Z,1012.69
2016-08-11T03:54:02.066Z,1012.7
2016-08-11T03:55:02.038Z,1012.69
2016-08-11T03:56:02.012Z,1012.68
2016-08-11T03:57:01.987Z,1012.69
2016-08-11T03:58:01.961Z,1012.7
2016-08-11T03:59:01.934Z,1012.72
2016-08-11T04:00:01.908Z,1012.67
2016-08-11T04:01:01.879Z,1012.67
2016-08-11T04:02:01.854Z,1012.64
2016-08-11T04:03:01.828Z,1012.6
2016-08-11T04:04:01.802Z,1012.65
2016-08-11T04:05:01.778Z,1012.62
2016-08-11T04:06:01.750Z,1012.68
2016-08-11T04:07:01.723Z,1012.68
2016-08-11T04:08:01.696Z,1012.68
2016-08-11T04:09:01.672Z,1012.69
2016-08-11T04:10:01.649Z,1012.66
2016-08-11T04:11:01.617Z,1012.65
2016-08-11T04:12:01.591Z,1012.66
2016-08-11T04:13:01.565Z,1012.66
2016-08-11T04:14:01.539Z,1012.64
2016-08-11T04:15:01.514Z,1012.6
2016-08-11T04:16:01.487Z,1012.64
2016-08-11T04:17:01.460Z,1012.62
2016-08-11T04:18:01.435Z,1012.61
2016-08-11T04:19:01.409Z,1012.62
2016-08-11T04:20:01.381Z,1012.6
2016-08-11T04:21:01.356Z,1012.6
2016-08-11T04:22:01.329Z,1012.6
2016-08-11T04:23:01.318Z,1012.57
2016-08-11T04:24:01.277Z,1012.57
2016-08-11T04:25:01.256Z,1012.62
2016-08-11T04:26:01.226Z,1012.59
2016-08-11T04:27:01.198Z,1012.63
2016-08-11T04:28:01.172Z,1012.64
2016-08-11T04:30:01.121Z,1012.67
2016-08-11T04:31:01.094Z,1012.67
2016-08-11T04:32:01.068Z,1012.68
2016-08-11T04:33:01.042Z,1012.66
2016-08-11T04:34:01.014Z,1012.74
2016-08-11T04:35:00.989Z,1012.7
2016-08-11T04:36:00.964Z,1012.72
2016-08-11T04:37:00.937Z,1012.69
2016-08-11T04:38:00.911Z,1012.69
2016-08-11T04:39:00.886Z,1012.7
2016-08-11T04:40:00.859Z,1012.72
2016-08-11T04:41:00.833Z,1012.68
2016-08-11T04:42:00.807Z,1012.75
2016-08-11T04:43:00.826Z,1012.73
2016-08-11T04:44:00.755Z,1012.76
2016-08-11T04:45:00.951Z,1012.78
2016-08-11T04:46:00.703Z,1012.77
2016-08-11T04:47:00.678Z,1012.82
2016-08-11T04:48:00.664Z,1012.8
2016-08-11T04:49:00.624Z,1012.78
2016-08-11T04:50:00.599Z,1012.75
2016-08-11T04:51:00.574Z,1012.8
2016-08-11T04:52:00.548Z,1012.78
2016-08-11T04:53:01.085Z,1012.79
2016-08-11T04:54:00.497Z,1012.77
2016-08-11T04:55:00.471Z,1012.75
2016-08-11T04:56:00.443Z,1012.78
2016-08-11T04:57:00.420Z,1012.78
2016-08-11T04:58:00.393Z,1012.77
2016-08-11T05:00:00.343Z,1012.79
2016-08-11T05:01:00.317Z,1012.78
2016-08-11T05:02:00.291Z,1012.75
2016-08-11T05:03:00.265Z,1012.75
2016-08-11T05:04:00.240Z,1012.75
2016-08-11T05:05:00.216Z,1012.77
2016-08-11T05:06:00.191Z,1012.76
2016-08-11T05:07:00.164Z,1012.79
2016-08-11T05:08:00.340Z,1012.79
2016-08-11T05:09:00.114Z,1012.75
2016-08-11T05:10:00.091Z,1012.75
2016-08-11T05:11:00.062Z,1012.73
2016-08-11T05:12:00.038Z,1012.73
2016-08-11T05:13:00.013Z,1012.73
2016-08-11T05:15:00.194Z,1012.75
2016-08-11T05:15:59.936Z,1012.74
2016-08-11T05:17:00.054Z,1012.8
2016-08-11T05:17:59.887Z,1012.79
2016-08-11T05:18:59.862Z,1012.76
2016-08-11T05:19:59.836Z,1012.74
2016-08-11T05:20:59.812Z,1012.67
2016-08-11T05:21:59.800Z,1012.72
2016-08-11T05:22:59.762Z,1012.7
2016-08-11T05:23:59.737Z,1012.73
2016-08-11T05:24:59.712Z,1012.74
2016-08-11T05:25:59.687Z,1012.75
2016-08-11T05:26:59.662Z,1012.73
2016-08-11T05:27:59.637Z,1012.77
2016-08-11T05:29:59.632Z,1012.77
2016-08-11T05:30:59.564Z,1012.77
2016-08-11T05:31:59.539Z,1012.79
2016-08-11T05:32:59.643Z,1012.73
2016-08-11T05:33:59.491Z,1012.72
2016-08-11T05:34:59.467Z,1012.72
2016-08-11T05:35:59.448Z,1012.73
2016-08-11T05:36:59.421Z,1012.73
2016-08-11T05:37:59.392Z,1012.73
2016-08-11T05:38:59.368Z,1012.74
2016-08-11T05:39:59.343Z,1012.76
2016-08-11T05:40:59.321Z,1012.73
2016-08-11T05:41:59.297Z,1012.73
2016-08-11T05:42:59.273Z,1012.74
2016-08-11T05:43:59.246Z,1012.75
2016-08-11T05:44:59.223Z,1012.73
2016-08-11T05:45:59.202Z,1012.75
2016-08-11T05:46:59.176Z,1012.76
2016-08-11T05:47:59.153Z,1012.75
2016-08-11T05:48:59.129Z,1012.76
2016-08-11T05:49:59.104Z,1012.8
2016-08-11T05:50:59.080Z,1012.76
2016-08-11T05:51:59.056Z,1012.77
2016-08-11T05:52:59.034Z,1012.77
2016-08-11T05:53:59.010Z,1012.73
2016-08-11T05:54:58.986Z,1012.78
2016-08-11T05:55:58.963Z,1012.73
2016-08-11T05:56:58.939Z,1012.73
2016-08-11T05:57:58.915Z,1012.72
2016-08-11T05:58:58.892Z,1012.78
2016-08-11T05:59:58.869Z,1012.72
2016-08-11T06:00:58.846Z,1012.76
2016-08-11T06:01:58.823Z,1012.76
2016-08-11T06:02:58.799Z,1012.73
2016-08-11T06:03:58.776Z,1012.74
2016-08-11T06:04:58.760Z,1012.76
2016-08-11T06:05:58.729Z,1012.76
2016-08-11T06:06:58.706Z,1012.75
2016-08-11T06:07:58.683Z,1012.73
2016-08-11T06:08:58.699Z,1012.75
2016-08-11T06:09:58.637Z,1012.75
2016-08-11T06:10:58.613Z,1012.76
2016-08-11T06:11:58.623Z,1012.74
2016-08-11T06:12:58.621Z,1012.77
2016-08-11T06:13:58.598Z,1012.77
2016-08-11T06:14:58.521Z,1012.77
2016-08-11T06:15:58.497Z,1012.78
2016-08-11T06:16:58.474Z,1012.76
2016-08-11T06:17:58.452Z,1012.75
2016-08-11T06:18:58.429Z,1012.76
2016-08-11T06:19:58.405Z,1012.71
2016-08-11T06:20:58.381Z,1012.72
2016-08-11T06:21:58.359Z,1012.72
2016-08-11T06:22:58.336Z,1012.75
2016-08-11T06:23:58.312Z,1012.76
2016-08-11T06:24:58.289Z,1012.75
2016-08-11T06:25:58.364Z,1012.73
2016-08-11T06:26:58.244Z,1012.72
2016-08-11T06:27:58.221Z,1012.74
2016-08-11T06:28:58.198Z,1012.74
2016-08-11T06:29:58.177Z,1012.73
2016-08-11T06:30:58.153Z,1012.69
2016-08-11T06:31:58.138Z,1012.69
2016-08-11T06:32:58.109Z,1012.71
2016-08-11T06:33:58.086Z,1012.71
2016-08-11T06:34:58.063Z,1012.7
2016-08-11T06:35:58.041Z,1012.66
2016-08-11T06:36:58.019Z,1012.67
2016-08-11T06:37:57.997Z,1012.68
2016-08-11T06:38:57.975Z,1012.7
2016-08-11T06:39:57.954Z,1012.71
2016-08-11T06:40:57.932Z,1012.7
2016-08-11T06:41:57.910Z,1012.73
2016-08-11T06:42:57.888Z,1012.75
2016-08-11T06:43:57.866Z,1012.73
2016-08-11T06:44:57.845Z,1012.75
2016-08-11T06:45:57.823Z,1012.72
2016-08-11T06:46:57.802Z,1012.73
2016-08-11T06:47:57.780Z,1012.75
2016-08-11T06:48:57.758Z,1012.75
2016-08-11T06:49:57.735Z,1012.72
2016-08-11T06:50:57.715Z,1012.72
2016-08-11T06:51:57.694Z,1012.7
2016-08-11T06:52:57.671Z,1012.68
2016-08-11T06:53:57.650Z,1012.65
2016-08-11T06:54:57.683Z,1012.65
2016-08-11T06:55:57.659Z,1012.67
2016-08-11T06:56:57.586Z,1012.65
2016-08-11T06:57:57.565Z,1012.66
2016-08-11T06:58:57.543Z,1012.67
2016-08-11T06:59:57.522Z,1012.59
2016-08-11T07:00:57.501Z,1012.66
2016-08-11T07:01:57.481Z,1012.67
2016-08-11T07:02:57.685Z,1012.63
2016-08-11T07:03:57.439Z,1012.64
2016-08-11T07:04:57.417Z,1012.62
2016-08-11T07:05:57.449Z,1012.63
2016-08-11T07:06:57.380Z,1012.63
2016-08-11T07:07:57.418Z,1012.66
2016-08-11T07:08:57.482Z,1012.62
2016-08-11T07:09:57.371Z,1012.62
2016-08-11T07:10:57.570Z,1012.62
2016-08-11T07:11:57.365Z,1012.59
2016-08-11T07:12:57.249Z,1012.65
2016-08-11T07:13:57.228Z,1012.66
2016-08-11T07:14:57.207Z,1012.67
2016-08-11T07:15:57.187Z,1012.65
2016-08-11T07:16:57.218Z,1012.6
2016-08-11T07:17:57.327Z,1012.61
2016-08-11T07:18:57.124Z,1012.64
2016-08-11T07:19:57.170Z,1012.61
2016-08-11T07:20:57.201Z,1012.63
2016-08-11T07:21:57.137Z,1012.62
2016-08-11T07:22:57.044Z,1012.63
2016-08-11T07:23:57.267Z,1012.63
2016-08-11T07:24:57.042Z,1012.59
2016-08-11T07:25:56.984Z,1012.59
2016-08-11T07:26:57.011Z,1012.58
2016-08-11T07:27:57.053Z,1012.58
2016-08-11T07:28:56.924Z,1012.62
2016-08-11T07:29:56.905Z,1012.59
2016-08-11T07:30:56.884Z,1012.63
2016-08-11T07:31:56.898Z,1012.63
2016-08-11T07:32:56.844Z,1012.63
2016-08-11T07:33:56.826Z,1012.6
2016-08-11T07:34:56.806Z,1012.63
2016-08-11T07:35:56.858Z,1012.62
2016-08-11T07:36:56.786Z,1012.63
2016-08-11T07:37:56.746Z,1012.58
2016-08-11T07:38:56.727Z,1012.59
2016-08-11T07:39:56.707Z,1012.61
2016-08-11T07:40:56.688Z,1012.53
2016-08-11T07:41:56.666Z,1012.56
2016-08-11T07:42:56.647Z,1012.54
2016-08-11T07:43:56.626Z,1012.51
2016-08-11T07:44:56.611Z,1012.53
2016-08-11T07:45:56.588Z,1012.53
2016-08-11T07:46:56.573Z,1012.5
2016-08-11T07:47:56.605Z,1012.49
2016-08-11T07:48:56.529Z,1012.5
2016-08-11T07:49:56.518Z,1012.52
2016-08-11T07:50:56.490Z,1012.51
2016-08-11T07:51:56.653Z,1012.47
2016-08-11T07:52:56.450Z,1012.46
2016-08-11T07:53:56.485Z,1012.47
2016-08-11T07:54:56.410Z,1012.46
2016-08-11T07:55:56.392Z,1012.49
2016-08-11T07:56:56.481Z,1012.44
2016-08-11T07:57:56.353Z,1012.4
2016-08-11T07:58:56.334Z,1012.45
2016-08-11T07:59:56.382Z,1012.46
2016-08-11T08:00:56.294Z,1012.47
2016-08-11T08:01:56.275Z,1012.46
2016-08-11T08:02:56.255Z,1012.43
2016-08-11T08:03:56.236Z,1012.46
2016-08-11T08:04:56.216Z,1012.44
2016-08-11T08:05:56.205Z,1012.46
2016-08-11T08:06:56.286Z,1012.37
2016-08-11T08:07:56.322Z,1012.41
2016-08-11T08:08:56.255Z,1012.45
2016-08-11T08:09:56.120Z,1012.41
2016-08-11T08:10:56.111Z,1012.43
2016-08-11T08:11:56.334Z,1012.41
2016-08-11T08:12:56.064Z,1012.45
2016-08-11T08:13:56.045Z,1012.44
2016-08-11T08:14:56.045Z,1012.46
2016-08-11T08:15:56.008Z,1012.41
2016-08-11T08:16:56.038Z,1012.39
2016-08-11T08:17:55.969Z,1012.39
2016-08-11T08:18:56.022Z,1012.42
2016-08-11T08:19:55.933Z,1012.41
2016-08-11T08:20:55.913Z,1012.43
2016-08-11T08:21:55.895Z,1012.39
2016-08-11T08:22:55.886Z,1012.36
2016-08-11T08:23:55.858Z,1012.35
2016-08-11T08:24:55.839Z,1012.33
2016-08-11T08:25:55.823Z,1012.35
2016-08-11T08:26:55.849Z,1012.32
2016-08-11T08:27:55.784Z,1012.32
2016-08-11T08:28:55.869Z,1012.36
2016-08-11T08:29:55.829Z,1012.32
2016-08-11T08:30:55.785Z,1012.33
2016-08-11T08:31:55.711Z,1012.33
2016-08-11T08:32:55.748Z,1012.3
2016-08-11T08:33:55.779Z,1012.27
2016-08-11T08:34:55.658Z,1012.27
2016-08-11T08:35:55.741Z,1012.26
2016-08-11T08:36:55.649Z,1012.26
2016-08-11T08:37:55.605Z,1012.25
2016-08-11T08:38:55.641Z,1012.24
2016-08-11T08:39:55.623Z,1012.26
2016-08-11T08:40:55.641Z,1012.23
2016-08-11T08:41:55.532Z,1012.22
2016-08-11T08:42:55.515Z,1012.19
2016-08-11T08:43:55.575Z,1012.17
2016-08-11T08:44:55.620Z,1012.17
2016-08-11T08:45:55.461Z,1012.16
2016-08-11T08:46:55.444Z,1012.1
2016-08-11T08:47:55.737Z,1012.1
2016-08-11T08:48:55.597Z,1012.08
2016-08-11T08:49:55.450Z,1012.06
2016-08-11T08:50:55.372Z,1012.1
2016-08-11T08:51:55.362Z,1012.13
2016-08-11T08:52:55.437Z,1012.07
2016-08-11T08:53:55.416Z,1012.06
2016-08-11T08:54:55.332Z,1012.06
2016-08-11T08:55:55.324Z,1012.04
2016-08-11T08:56:55.268Z,1011.99
2016-08-11T08:57:55.251Z,1012.02
2016-08-11T08:58:55.342Z,1012
2016-08-11T08:59:55.217Z,1011.99
2016-08-11T09:00:55.201Z,1011.99
2016-08-11T09:01:55.190Z,1012.04
2016-08-11T09:02:55.165Z,1011.95
2016-08-11T09:03:55.205Z,1012.03
2016-08-11T09:04:55.246Z,1012
2016-08-11T09:05:55.164Z,1011.96
2016-08-11T09:06:55.190Z,1011.97
2016-08-11T09:07:55.079Z,1011.97
2016-08-11T09:08:55.073Z,1011.95
2016-08-11T09:09:55.046Z,1011.97
2016-08-11T09:10:55.030Z,1011.96
2016-08-11T09:11:55.014Z,1011.98
2016-08-11T09:12:54.995Z,1011.98
2016-08-11T09:13:54.979Z,1011.94
2016-08-11T09:14:55.063Z,1011.92
2016-08-11T09:15:54.958Z,1011.93
2016-08-11T09:16:54.929Z,1011.84
2016-08-11T09:17:54.915Z,1011.83
2016-08-11T09:18:54.895Z,1011.76
2016-08-11T09:19:54.983Z,1011.83
2016-08-11T09:20:54.862Z,1011.85
2016-08-11T09:21:54.848Z,1011.82
2016-08-11T09:22:54.930Z,1011.84
2016-08-11T09:23:54.922Z,1011.86
2016-08-11T09:24:54.963Z,1011.81
2016-08-11T09:25:54.783Z,1011.83
2016-08-11T09:26:54.779Z,1011.83
2016-08-11T09:27:54.753Z,1011.79
2016-08-11T09:28:54.865Z,1011.79
2016-08-11T09:29:54.779Z,1011.75
2016-08-11T09:30:54.749Z,1011.75
2016-08-11T09:31:54.788Z,1011.74
2016-08-11T09:32:54.671Z,1011.73
2016-08-11T09:33:54.709Z,1011.75
2016-08-11T09:34:54.695Z,1011.72
2016-08-11T09:35:54.685Z,1011.72
2016-08-11T09:36:54.662Z,1011.7
2016-08-11T09:37:54.658Z,1011.72
2016-08-11T09:38:54.630Z,1011.64
2016-08-11T09:39:54.637Z,1011.65
2016-08-11T09:40:54.547Z,1011.72
2016-08-11T09:41:54.552Z,1011.69
2016-08-11T09:42:54.516Z,1011.7
2016-08-11T09:43:54.532Z,1011.68
2016-08-11T09:44:54.538Z,1011.69
2016-08-11T09:45:54.472Z,1011.64
2016-08-11T09:46:54.456Z,1011.59
2016-08-11T09:47:54.446Z,1011.59
2016-08-11T09:48:54.427Z,1011.55
2016-08-11T09:49:54.413Z,1011.54
2016-08-11T09:50:54.502Z,1011.47
2016-08-11T09:51:54.488Z,1011.4
2016-08-11T09:52:54.455Z,1011.41
2016-08-11T09:53:54.354Z,1011.37
2016-08-11T09:54:54.338Z,1011.45
2016-08-11T09:55:54.323Z,1011.36
2016-08-11T09:56:54.309Z,1011.35
2016-08-11T09:57:54.310Z,1011.34
2016-08-11T09:58:54.281Z,1011.37
2016-08-11T09:59:54.264Z,1011.42
2016-08-11T10:00:54.251Z,1011.37
2016-08-11T10:01:54.236Z,1011.38
2016-08-11T10:02:54.220Z,1011.42
2016-08-11T10:03:54.206Z,1011.43
2016-08-11T10:04:54.191Z,1011.43
2016-08-11T10:05:54.457Z,1011.48
2016-08-11T10:06:54.233Z,1011.48
2016-08-11T10:07:54.147Z,1011.31
2016-08-11T10:08:54.133Z,1011.38
2016-08-11T10:09:54.239Z,1011.44
2016-08-11T10:10:54.103Z,1011.37
2016-08-11T10:11:54.093Z,1011.4
2016-08-11T10:12:54.077Z,1011.33
2016-08-11T10:13:54.066Z,1011.32
2016-08-11T10:14:54.220Z,1011.31
2016-08-11T10:15:54.033Z,1011.3
2016-08-11T10:16:54.031Z,1011.3
2016-08-11T10:17:54.129Z,1011.26
2016-08-11T10:18:54.080Z,1011.24
2016-08-11T10:19:54.028Z,1011.27
2016-08-11T10:20:53.959Z,1011.19
2016-08-11T10:21:53.946Z,1011.22
2016-08-11T10:22:53.930Z,1011.15
2016-08-11T10:23:53.918Z,1011.2
2016-08-11T10:24:53.908Z,1011.18
2016-08-11T10:25:53.887Z,1011.26
2016-08-11T10:26:53.925Z,1011.25
2016-08-11T10:27:53.911Z,1011.18
2016-08-11T10:28:53.901Z,1011.21
2016-08-11T10:29:53.828Z,1011.11
2016-08-11T10:30:53.869Z,1011.2
2016-08-11T10:31:53.839Z,1011.19
2016-08-11T10:32:53.840Z,1011.25
2016-08-11T10:33:53.769Z,1011.16
2016-08-11T10:34:53.761Z,1011.12
2016-08-11T10:35:53.738Z,1011.09
2016-08-11T10:36:53.724Z,1011.16
2016-08-11T10:37:53.709Z,1011.21
2016-08-11T10:38:53.694Z,1011.17
2016-08-11T10:39:53.677Z,1011.23
2016-08-11T10:40:53.662Z,1011.24
2016-08-11T10:41:53.647Z,1011.18
2016-08-11T10:42:53.631Z,1011.2
2016-08-11T10:43:53.616Z,1011.23
2016-08-11T10:44:53.600Z,1011.27
2016-08-11T10:45:53.584Z,1011.15
2016-08-11T10:46:53.570Z,1011.13
2016-08-11T10:47:53.552Z,1011.16
2016-08-11T10:48:53.537Z,1011.2
2016-08-11T10:49:53.522Z,1011.23
2016-08-11T10:50:53.506Z,1011.16
2016-08-11T10:51:53.490Z,1011.11
2016-08-11T10:52:53.474Z,1011.16
2016-08-11T10:53:53.459Z,1011.14
2016-08-11T10:54:53.443Z,1011.19
2016-08-11T10:55:53.429Z,1011.11
2016-08-11T10:56:53.414Z,1011.11
2016-08-11T10:57:53.398Z,1011.11
2016-08-11T10:58:53.382Z,1011.09
2016-08-11T11:00:53.353Z,1011.11
2016-08-11T11:01:53.394Z,1011.06
2016-08-11T11:02:53.483Z,1011.09
2016-08-11T11:03:53.308Z,1011.04
2016-08-11T11:04:53.316Z,1010.93
2016-08-11T11:05:53.276Z,1011.06
2016-08-11T11:06:53.275Z,1011.07
2016-08-11T11:07:53.248Z,1011.06
2016-08-11T11:08:53.230Z,1010.98
2016-08-11T11:09:53.216Z,1011.07
2016-08-11T11:10:53.201Z,1011.01
2016-08-11T11:11:53.185Z,1011.1
2016-08-11T11:12:53.606Z,1011.04
2016-08-11T11:13:53.203Z,1011.04
2016-08-11T11:15:53.319Z,1010.99
2016-08-11T11:16:53.174Z,1011.03
2016-08-11T11:17:53.095Z,1011.01
2016-08-11T11:18:53.079Z,1010.97
2016-08-11T11:19:53.383Z,1010.93
2016-08-11T11:20:53.094Z,1010.97
2016-08-11T11:21:53.170Z,1010.93
2016-08-11T11:22:53.183Z,1010.96
2016-08-11T11:23:53.226Z,1010.93
2016-08-11T11:24:53.134Z,1010.83
2016-08-11T11:25:52.976Z,1010.85
2016-08-11T11:26:53.100Z,1010.9
2016-08-11T11:27:52.986Z,1010.9
2016-08-11T11:28:52.968Z,1010.86
2016-08-11T11:29:53.004Z,1010.82
2016-08-11T11:30:52.937Z,1010.79
2016-08-11T11:31:52.927Z,1010.76
2016-08-11T11:32:52.912Z,1010.72
2016-08-11T11:33:52.970Z,1010.78
2016-08-11T11:34:52.937Z,1010.69
2016-08-11T11:35:52.999Z,1010.66
2016-08-11T11:36:53.057Z,1010.63
2016-08-11T11:37:52.885Z,1010.61
2016-08-11T11:38:52.902Z,1010.7
2016-08-11T11:39:52.858Z,1010.63
2016-08-11T11:40:52.970Z,1010.73
2016-08-11T11:41:52.850Z,1010.68
2016-08-11T11:42:52.835Z,1010.6
2016-08-11T11:43:52.840Z,1010.64
2016-08-11T11:44:52.826Z,1010.63
2016-08-11T11:45:52.795Z,1010.63
2016-08-11T11:46:52.821Z,1010.64
2016-08-11T11:47:52.787Z,1010.54
2016-08-11T11:48:52.791Z,1010.52
2016-08-11T11:49:52.746Z,1010.61
2016-08-11T11:50:52.806Z,1010.64
2016-08-11T11:51:52.852Z,1010.64
2016-08-11T11:52:52.720Z,1010.65
2016-08-11T11:53:52.786Z,1010.6
2016-08-11T11:54:52.709Z,1010.61
2016-08-11T11:55:52.534Z,1010.63
2016-08-11T11:56:52.690Z,1010.58
2016-08-11T11:57:52.762Z,1010.62
2016-08-11T11:58:52.595Z,1010.63
2016-08-11T11:59:52.568Z,1010.61
2016-08-11T12:00:52.504Z,1010.55
2016-08-11T12:01:52.679Z,1010.58
2016-08-11T12:02:52.471Z,1010.55
2016-08-11T12:03:52.473Z,1010.6
2016-08-11T12:04:52.549Z,1010.56
2016-08-11T12:05:52.532Z,1010.45
2016-08-11T12:06:52.497Z,1010.54
2016-08-11T12:07:52.559Z,1010.57
2016-08-11T12:08:52.422Z,1010.55
2016-08-11T12:09:52.361Z,1010.65
2016-08-11T12:10:52.342Z,1010.61
2016-08-11T12:11:52.327Z,1010.58
2016-08-11T12:12:52.311Z,1010.64
2016-08-11T12:13:52.295Z,1010.65